sensor_id;sensor_type;location;lat;lon;timestamp;pressure;altitude;pressure_sealevel;temperature;humidity
41044;BME280;51680;49.806;18.774;2022-08-19T00:02:30;96923.28;;;26.53;60.52
41044;BME280;51680;49.806;18.774;2022-08-19T00:05:34;96915.66;;;26.50;60.60
41044;BME280;51680;49.806;18.774;2022-08-19T00:08:36;96910.28;;;26.43;60.60
41044;BME280;51680;49.806;18.774;2022-08-19T00:11:38;96913.19;;;26.42;60.82
41044;BME280;51680;49.806;18.774;2022-08-19T00:14:41;96906.63;;;26.38;61.49
41044;BME280;51680;49.806;18.774;2022-08-19T00:17:44;96902.50;;;26.35;61.37
41044;BME280;51680;49.806;18.774;2022-08-19T00:20:47;96908.66;;;26.23;61.68
41044;BME280;51680;49.806;18.774;2022-08-19T00:23:49;96899.63;;;26.11;62.01
41044;BME280;51680;49.806;18.774;2022-08-19T00:26:51;96893.88;;;26.01;62.10
41044;BME280;51680;49.806;18.774;2022-08-19T00:29:53;96896.72;;;25.93;62.41
41044;BME280;51680;49.806;18.774;2022-08-19T00:32:55;96900.03;;;26.01;62.08
41044;BME280;51680;49.806;18.774;2022-08-19T00:35:58;96881.53;;;26.06;61.38
41044;BME280;51680;49.806;18.774;2022-08-19T00:39:00;96886.88;;;26.06;61.19
41044;BME280;51680;49.806;18.774;2022-08-19T00:42:02;96883.97;;;26.08;61.23
41044;BME280;51680;49.806;18.774;2022-08-19T00:45:10;96878.00;;;26.06;60.90
41044;BME280;51680;49.806;18.774;2022-08-19T00:48:12;96872.03;;;26.10;60.92
41044;BME280;51680;49.806;18.774;2022-08-19T00:51:15;96877.59;;;26.15;60.21
41044;BME280;51680;49.806;18.774;2022-08-19T00:54:18;96865.84;;;26.23;60.04
41044;BME280;51680;49.806;18.774;2022-08-19T00:57:25;96869.94;;;26.32;59.76
41044;BME280;51680;49.806;18.774;2022-08-19T01:00:29;96871.38;;;26.34;59.60
41044;BME280;51680;49.806;18.774;2022-08-19T01:03:31;96875.09;;;26.20;59.02
41044;BME280;51680;49.806;18.774;2022-08-19T01:06:35;96869.94;;;26.25;59.29
41044;BME280;51680;49.806;18.774;2022-08-19T01:09:37;96864.41;;;26.27;59.59
41044;BME280;51680;49.806;18.774;2022-08-19T01:12:40;96859.47;;;26.30;59.33
41044;BME280;51680;49.806;18.774;2022-08-19T01:15:43;96865.22;;;26.21;59.13
41044;BME280;51680;49.806;18.774;2022-08-19T01:18:47;96862.16;;;26.11;59.13
41044;BME280;51680;49.806;18.774;2022-08-19T01:21:55;96851.84;;;26.08;58.77
41044;BME280;51680;49.806;18.774;2022-08-19T01:25:01;96854.13;;;26.11;58.81
41044;BME280;51680;49.806;18.774;2022-08-19T01:28:03;96855.56;;;26.07;58.77
41044;BME280;51680;49.806;18.774;2022-08-19T01:31:06;96847.75;;;26.05;58.45
41044;BME280;51680;49.806;18.774;2022-08-19T01:34:08;96843.63;;;26.16;58.19
41044;BME280;51680;49.806;18.774;2022-08-19T01:37:11;96837.44;;;26.22;58.02
41044;BME280;51680;49.806;18.774;2022-08-19T01:40:14;96837.41;;;26.28;57.24
41044;BME280;51680;49.806;18.774;2022-08-19T01:43:16;96844.66;;;26.28;57.72
41044;BME280;51680;49.806;18.774;2022-08-19T01:46:19;96839.50;;;26.33;57.68
41044;BME280;51680;49.806;18.774;2022-08-19T01:49:22;96845.66;;;26.27;57.96
41044;BME280;51680;49.806;18.774;2022-08-19T01:52:27;96844.00;;;26.26;57.83
41044;BME280;51680;49.806;18.774;2022-08-19T01:55:30;96846.28;;;26.29;57.54
41044;BME280;51680;49.806;18.774;2022-08-19T01:58:35;96854.72;;;26.39;57.32
41044;BME280;51680;49.806;18.774;2022-08-19T02:01:38;96854.50;;;26.34;57.26
41044;BME280;51680;49.806;18.774;2022-08-19T02:04:40;96848.97;;;26.29;56.93
41044;BME280;51680;49.806;18.774;2022-08-19T02:07:42;96847.28;;;26.34;56.49
41044;BME280;51680;49.806;18.774;2022-08-19T02:10:46;96839.88;;;26.43;56.18
41044;BME280;51680;49.806;18.774;2022-08-19T02:13:48;96839.84;;;26.56;55.89
41044;BME280;51680;49.806;18.774;2022-08-19T02:16:50;96834.91;;;26.53;55.61
41044;BME280;51680;49.806;18.774;2022-08-19T02:19:52;96841.06;;;26.53;55.94
41044;BME280;51680;49.806;18.774;2022-08-19T02:22:54;96828.72;;;26.52;55.36
41044;BME280;51680;49.806;18.774;2022-08-19T02:25:57;96829.97;;;26.56;55.31
41044;BME280;51680;49.806;18.774;2022-08-19T02:28:59;96830.38;;;26.60;54.74
41044;BME280;51680;49.806;18.774;2022-08-19T02:32:01;96834.06;;;26.65;54.28
41044;BME280;51680;49.806;18.774;2022-08-19T02:35:03;96833.63;;;26.68;54.09
41044;BME280;51680;49.806;18.774;2022-08-19T02:38:05;96834.84;;;26.72;53.74
41044;BME280;51680;49.806;18.774;2022-08-19T02:41:27;96832.78;;;26.81;52.97
41044;BME280;51680;49.806;18.774;2022-08-19T02:44:29;96827.78;;;26.91;53.16
41044;BME280;51680;49.806;18.774;2022-08-19T02:47:30;96826.72;;;26.98;52.88
41044;BME280;51680;49.806;18.774;2022-08-19T02:50:32;96826.06;;;27.03;52.74
41044;BME280;51680;49.806;18.774;2022-08-19T02:53:34;96819.44;;;27.05;52.42
41044;BME280;51680;49.806;18.774;2022-08-19T02:56:39;96812.44;;;27.04;51.75
41044;BME280;51680;49.806;18.774;2022-08-19T02:59:41;96819.00;;;27.15;51.98
41044;BME280;51680;49.806;18.774;2022-08-19T03:02:43;96811.16;;;27.20;51.91
41044;BME280;51680;49.806;18.774;2022-08-19T03:05:46;96803.28;;;27.25;51.90
41044;BME280;51680;49.806;18.774;2022-08-19T03:08:48;96812.72;;;27.34;51.81
41044;BME280;51680;49.806;18.774;2022-08-19T03:11:52;96806.91;;;27.37;51.55
41044;BME280;51680;49.806;18.774;2022-08-19T03:14:54;96817.63;;;27.37;51.39
41044;BME280;51680;49.806;18.774;2022-08-19T03:17:56;96825.84;;;27.42;51.50
41044;BME280;51680;49.806;18.774;2022-08-19T03:20:57;96835.50;;;27.49;51.65
41044;BME280;51680;49.806;18.774;2022-08-19T03:24:02;96836.16;;;27.45;51.34
41044;BME280;51680;49.806;18.774;2022-08-19T03:27:06;96831.66;;;27.39;51.18
41044;BME280;51680;49.806;18.774;2022-08-19T03:30:10;96820.53;;;27.35;51.18
41044;BME280;51680;49.806;18.774;2022-08-19T03:33:11;96823.88;;;27.31;51.37
41044;BME280;51680;49.806;18.774;2022-08-19T03:36:16;96833.31;;;27.40;51.42
41044;BME280;51680;49.806;18.774;2022-08-19T03:39:18;96837.63;;;27.41;51.42
41044;BME280;51680;49.806;18.774;2022-08-19T03:42:21;96833.31;;;27.40;51.04
41044;BME280;51680;49.806;18.774;2022-08-19T03:45:23;96833.31;;;27.40;51.42
41044;BME280;51680;49.806;18.774;2022-08-19T03:48:25;96847.34;;;27.35;51.33
41044;BME280;51680;49.806;18.774;2022-08-19T03:51:29;96849.59;;;27.38;51.51
41044;BME280;51680;49.806;18.774;2022-08-19T03:54:32;96861.16;;;27.39;51.39
41044;BME280;51680;49.806;18.774;2022-08-19T03:57:35;96861.16;;;27.39;51.17
41044;BME280;51680;49.806;18.774;2022-08-19T04:00:37;96852.09;;;27.40;51.17
41044;BME280;51680;49.806;18.774;2022-08-19T04:03:39;96845.50;;;27.36;51.10
41044;BME280;51680;49.806;18.774;2022-08-19T04:06:43;96866.94;;;27.36;51.37
41044;BME280;51680;49.806;18.774;2022-08-19T04:09:47;96884.50;;;27.32;51.38
41044;BME280;51680;49.806;18.774;2022-08-19T04:12:51;96879.94;;;27.39;50.97
41044;BME280;51680;49.806;18.774;2022-08-19T04:15:53;96880.38;;;27.36;51.43
41044;BME280;51680;49.806;18.774;2022-08-19T04:18:54;96870.22;;;27.38;51.48
41044;BME280;51680;49.806;18.774;2022-08-19T04:21:57;96880.13;;;27.44;51.38
41044;BME280;51680;49.806;18.774;2022-08-19T04:24:59;96880.16;;;27.37;51.65
41044;BME280;51680;49.806;18.774;2022-08-19T04:28:02;96875.34;;;27.46;51.34
41044;BME280;51680;49.806;18.774;2022-08-19T04:31:04;96877.34;;;27.57;51.30
41044;BME280;51680;49.806;18.774;2022-08-19T04:34:08;96890.06;;;27.68;50.74
41044;BME280;51680;49.806;18.774;2022-08-19T04:37:11;96892.75;;;27.68;50.97
41044;BME280;51680;49.806;18.774;2022-08-19T04:40:14;96891.28;;;27.72;50.93
41044;BME280;51680;49.806;18.774;2022-08-19T04:43:37;96885.47;;;27.75;51.11
41044;BME280;51680;49.806;18.774;2022-08-19T04:46:39;96899.94;;;27.74;51.05
41044;BME280;51680;49.806;18.774;2022-08-19T04:49:40;96890.50;;;27.65;50.94
41044;BME280;51680;49.806;18.774;2022-08-19T04:52:42;96886.53;;;27.74;51.05
41044;BME280;51680;49.806;18.774;2022-08-19T04:55:44;96896.19;;;27.81;50.84
41044;BME280;51680;49.806;18.774;2022-08-19T04:58:48;96884.63;;;27.81;50.70
41044;BME280;51680;49.806;18.774;2022-08-19T05:01:51;96895.22;;;28.00;50.68
41044;BME280;51680;49.806;18.774;2022-08-19T05:04:56;96883.22;;;28.03;50.04
41044;BME280;51680;49.806;18.774;2022-08-19T05:08:00;96881.03;;;28.18;50.04
41044;BME280;51680;49.806;18.774;2022-08-19T05:11:22;96889.47;;;28.46;49.97
41044;BME280;51680;49.806;18.774;2022-08-19T05:14:25;96888.75;;;28.57;49.63
41044;BME280;51680;49.806;18.774;2022-08-19T05:17:27;96892.06;;;28.77;49.48
41044;BME280;51680;49.806;18.774;2022-08-19T05:20:29;96889.31;;;29.01;48.91
41044;BME280;51680;49.806;18.774;2022-08-19T05:23:48;96889.69;;;29.05;48.34
41044;BME280;51680;49.806;18.774;2022-08-19T05:26:51;96892.06;;;29.13;48.88
41044;BME280;51680;49.806;18.774;2022-08-19T05:29:54;96894.91;;;29.18;49.01
41044;BME280;51680;49.806;18.774;2022-08-19T05:32:56;96901.25;;;29.42;49.23
41044;BME280;51680;49.806;18.774;2022-08-19T05:35:58;96894.72;;;29.49;48.67
41044;BME280;51680;49.806;18.774;2022-08-19T05:39:00;96898.34;;;29.54;48.74
41044;BME280;51680;49.806;18.774;2022-08-19T05:42:04;96897.38;;;29.67;48.21
41044;BME280;51680;49.806;18.774;2022-08-19T05:45:09;96898.59;;;29.83;48.42
41044;BME280;51680;49.806;18.774;2022-08-19T05:48:12;96906.56;;;29.89;48.14
41044;BME280;51680;49.806;18.774;2022-08-19T05:51:14;96907.31;;;30.08;47.45
41044;BME280;51680;49.806;18.774;2022-08-19T05:54:18;96909.00;;;30.32;48.01
41044;BME280;51680;49.806;18.774;2022-08-19T05:57:20;96909.00;;;30.32;47.91
41044;BME280;51680;49.806;18.774;2022-08-19T06:00:23;96921.44;;;30.44;47.45
41044;BME280;51680;49.806;18.774;2022-08-19T06:03:25;96927.78;;;30.61;48.34
41044;BME280;51680;49.806;18.774;2022-08-19T06:06:28;96923.81;;;30.75;46.90
41044;BME280;51680;49.806;18.774;2022-08-19T06:09:30;96926.72;;;31.08;46.68
41044;BME280;51680;49.806;18.774;2022-08-19T06:12:32;96927.16;;;31.17;46.50
41044;BME280;51680;49.806;18.774;2022-08-19T06:15:35;96925.03;;;31.30;45.94
41044;BME280;51680;49.806;18.774;2022-08-19T06:18:37;96935.28;;;31.05;45.88
41044;BME280;51680;49.806;18.774;2022-08-19T06:21:40;96934.91;;;31.13;45.84
41044;BME280;51680;49.806;18.774;2022-08-19T06:24:43;96939.16;;;31.09;46.62
41044;BME280;51680;49.806;18.774;2022-08-19T06:27:46;96932.22;;;31.25;46.18
41044;BME280;51680;49.806;18.774;2022-08-19T06:30:49;96935.50;;;31.27;44.97
41044;BME280;51680;49.806;18.774;2022-08-19T06:33:51;96945.56;;;31.43;46.81
41044;BME280;51680;49.806;18.774;2022-08-19T06:36:54;96927.38;;;31.66;45.88
41044;BME280;51680;49.806;18.774;2022-08-19T06:39:56;96941.84;;;32.16;45.49
41044;BME280;51680;49.806;18.774;2022-08-19T06:42:58;96941.00;;;32.44;44.88
41044;BME280;51680;49.806;18.774;2022-08-19T06:46:03;96937.38;;;32.55;43.26
41044;BME280;51680;49.806;18.774;2022-08-19T06:49:11;96943.66;;;32.93;44.23
41044;BME280;51680;49.806;18.774;2022-08-19T06:52:14;96938.78;;;33.50;42.79
41044;BME280;51680;49.806;18.774;2022-08-19T06:55:16;96945.84;;;33.77;41.55
41044;BME280;51680;49.806;18.774;2022-08-19T06:58:18;96959.41;;;33.99;40.79
41044;BME280;51680;49.806;18.774;2022-08-19T07:01:21;96961.22;;;33.93;39.86
41044;BME280;51680;49.806;18.774;2022-08-19T07:04:24;96970.84;;;34.06;40.07
41044;BME280;51680;49.806;18.774;2022-08-19T07:07:26;96966.88;;;34.13;40.50
41044;BME280;51680;49.806;18.774;2022-08-19T07:10:28;96975.25;;;33.42;41.42
41044;BME280;51680;49.806;18.774;2022-08-19T07:13:32;96977.28;;;32.97;41.90
41044;BME280;51680;49.806;18.774;2022-08-19T07:16:38;96976.75;;;32.79;42.26
41044;BME280;51680;49.806;18.774;2022-08-19T07:19:40;96984.94;;;32.84;42.63
41044;BME280;51680;49.806;18.774;2022-08-19T07:22:42;96985.06;;;32.77;42.52
41044;BME280;51680;49.806;18.774;2022-08-19T07:25:45;96995.72;;;32.67;42.88
41044;BME280;51680;49.806;18.774;2022-08-19T07:28:48;96991.31;;;32.61;43.56
41044;BME280;51680;49.806;18.774;2022-08-19T07:31:52;96995.00;;;32.39;42.83
41044;BME280;51680;49.806;18.774;2022-08-19T07:34:56;96999.63;;;32.27;43.85
41044;BME280;51680;49.806;18.774;2022-08-19T07:37:58;97003.66;;;32.13;43.63
41044;BME280;51680;49.806;18.774;2022-08-19T07:41:03;97008.34;;;32.17;44.06
41044;BME280;51680;49.806;18.774;2022-08-19T07:44:07;97008.59;;;32.16;44.81
41044;BME280;51680;49.806;18.774;2022-08-19T07:47:10;96998.31;;;32.01;44.24
41044;BME280;51680;49.806;18.774;2022-08-19T07:50:18;97001.19;;;32.39;44.22
41044;BME280;51680;49.806;18.774;2022-08-19T07:53:20;97010.41;;;32.71;43.33
41044;BME280;51680;49.806;18.774;2022-08-19T07:56:23;97005.69;;;33.16;43.30
41044;BME280;51680;49.806;18.774;2022-08-19T07:59:25;97010.13;;;33.60;42.03
41044;BME280;51680;49.806;18.774;2022-08-19T08:02:28;97005.47;;;33.77;40.61
41044;BME280;51680;49.806;18.774;2022-08-19T08:05:48;97010.97;;;33.82;40.45
41044;BME280;51680;49.806;18.774;2022-08-19T08:09:09;97009.44;;;33.48;41.58
41044;BME280;51680;49.806;18.774;2022-08-19T08:12:21;97006.56;;;33.00;42.73
41044;BME280;51680;49.806;18.774;2022-08-19T08:15:25;97003.38;;;32.87;42.41
41044;BME280;51680;49.806;18.774;2022-08-19T08:18:28;97006.66;;;32.89;42.69
41044;BME280;51680;49.806;18.774;2022-08-19T08:21:30;97008.84;;;33.08;42.61
41044;BME280;51680;49.806;18.774;2022-08-19T08:24:32;97009.69;;;33.47;42.82
41044;BME280;51680;49.806;18.774;2022-08-19T08:27:36;97007.16;;;33.62;42.60
41044;BME280;51680;49.806;18.774;2022-08-19T08:30:39;97014.31;;;33.46;42.98
41044;BME280;51680;49.806;18.774;2022-08-19T08:33:44;97009.72;;;33.30;42.76
41044;BME280;51680;49.806;18.774;2022-08-19T08:36:47;97016.06;;;33.03;42.44
41044;BME280;51680;49.806;18.774;2022-08-19T08:39:48;97009.09;;;32.74;42.99
41044;BME280;51680;49.806;18.774;2022-08-19T08:42:54;97013.81;;;32.50;43.86
41044;BME280;51680;49.806;18.774;2022-08-19T08:46:04;97012.47;;;32.20;44.97
41044;BME280;51680;49.806;18.774;2022-08-19T08:49:24;96999.94;;;31.86;44.96
41044;BME280;51680;49.806;18.774;2022-08-19T08:52:30;97015.34;;;31.62;45.98
41044;BME280;51680;49.806;18.774;2022-08-19T08:55:34;97011.66;;;31.40;46.44
41044;BME280;51680;49.806;18.774;2022-08-19T08:58:44;97012.56;;;31.11;47.02
41044;BME280;51680;49.806;18.774;2022-08-19T09:01:46;97006.59;;;30.98;47.07
41044;BME280;51680;49.806;18.774;2022-08-19T09:04:50;97008.59;;;30.68;47.48
41044;BME280;51680;49.806;18.774;2022-08-19T09:07:58;97002.41;;;30.49;48.07
41044;BME280;51680;49.806;18.774;2022-08-19T09:11:05;97013.94;;;30.56;49.93
41044;BME280;51680;49.806;18.774;2022-08-19T09:14:18;97007.09;;;30.42;51.08
41044;BME280;51680;49.806;18.774;2022-08-19T09:17:24;97010.34;;;30.21;48.92
41044;BME280;51680;49.806;18.774;2022-08-19T09:20:29;97003.53;;;30.19;49.87
41044;BME280;51680;49.806;18.774;2022-08-19T09:23:32;97021.56;;;30.18;51.79
41044;BME280;51680;49.806;18.774;2022-08-19T09:26:34;97018.28;;;30.16;51.65
41044;BME280;51680;49.806;18.774;2022-08-19T09:29:36;97019.25;;;30.04;51.09
41044;BME280;51680;49.806;18.774;2022-08-19T09:32:38;97022.91;;;30.09;51.50
41044;BME280;51680;49.806;18.774;2022-08-19T09:35:44;97019.78;;;30.12;51.95
41044;BME280;51680;49.806;18.774;2022-08-19T09:38:46;97011.97;;;30.22;52.20
41044;BME280;51680;49.806;18.774;2022-08-19T09:41:48;97014.47;;;30.47;52.49
41044;BME280;51680;49.806;18.774;2022-08-19T09:44:50;97025.34;;;30.70;52.04
41044;BME280;51680;49.806;18.774;2022-08-19T09:47:52;97022.53;;;30.99;52.94
41044;BME280;51680;49.806;18.774;2022-08-19T09:51:02;97011.16;;;31.20;49.95
41044;BME280;51680;49.806;18.774;2022-08-19T09:54:04;97007.88;;;31.18;48.92
41044;BME280;51680;49.806;18.774;2022-08-19T09:57:06;97000.63;;;31.19;47.94
41044;BME280;51680;49.806;18.774;2022-08-19T10:00:09;96996.06;;;31.70;48.28
41044;BME280;51680;49.806;18.774;2022-08-19T10:03:10;97002.41;;;32.04;47.27
41044;BME280;51680;49.806;18.774;2022-08-19T10:06:14;96994.22;;;31.99;45.03
41044;BME280;51680;49.806;18.774;2022-08-19T10:09:16;96987.41;;;31.96;44.93
41044;BME280;51680;49.806;18.774;2022-08-19T10:12:18;96985.06;;;32.16;45.80
41044;BME280;51680;49.806;18.774;2022-08-19T10:15:20;96985.25;;;32.26;45.63
41044;BME280;51680;49.806;18.774;2022-08-19T10:18:23;96989.81;;;32.37;45.58
41044;BME280;51680;49.806;18.774;2022-08-19T10:21:29;96980.88;;;32.37;44.11
41044;BME280;51680;49.806;18.774;2022-08-19T10:24:31;96988.53;;;32.56;45.09
41044;BME280;51680;49.806;18.774;2022-08-19T10:27:33;96978.84;;;32.77;44.58
41044;BME280;51680;49.806;18.774;2022-08-19T10:30:35;96993.34;;;32.71;46.71
41044;BME280;51680;49.806;18.774;2022-08-19T10:33:38;96982.94;;;32.46;46.99
41044;BME280;51680;49.806;18.774;2022-08-19T10:36:41;96987.44;;;32.41;47.03
41044;BME280;51680;49.806;18.774;2022-08-19T10:39:45;96983.81;;;32.35;45.98
41044;BME280;51680;49.806;18.774;2022-08-19T10:42:48;96988.91;;;32.32;47.00
41044;BME280;51680;49.806;18.774;2022-08-19T10:45:52;96976.06;;;32.55;47.37
41044;BME280;51680;49.806;18.774;2022-08-19T10:48:56;96981.06;;;32.63;47.23
41044;BME280;51680;49.806;18.774;2022-08-19T10:51:59;96975.00;;;32.89;45.89
41044;BME280;51680;49.806;18.774;2022-08-19T10:55:21;96979.22;;;33.18;46.98
41044;BME280;51680;49.806;18.774;2022-08-19T10:58:40;96986.75;;;33.33;45.70
41044;BME280;51680;49.806;18.774;2022-08-19T11:01:44;96978.63;;;33.54;44.36
41044;BME280;51680;49.806;18.774;2022-08-19T11:04:46;96984.88;;;33.33;42.67
41044;BME280;51680;49.806;18.774;2022-08-19T11:07:51;96978.44;;;33.39;42.92
41044;BME280;51680;49.806;18.774;2022-08-19T11:10:54;96962.31;;;33.71;43.50
41044;BME280;51680;49.806;18.774;2022-08-19T11:13:58;96966.16;;;33.96;43.12
41044;BME280;51680;49.806;18.774;2022-08-19T11:17:01;96970.63;;;33.86;42.84
41044;BME280;51680;49.806;18.774;2022-08-19T11:20:03;96965.47;;;33.63;43.00
41044;BME280;51680;49.806;18.774;2022-08-19T11:23:07;96959.56;;;33.28;43.54
41044;BME280;51680;49.806;18.774;2022-08-19T11:26:09;96963.59;;;33.25;44.14
41044;BME280;51680;49.806;18.774;2022-08-19T11:29:12;96964.69;;;33.24;44.10
41044;BME280;51680;49.806;18.774;2022-08-19T11:32:14;96964.38;;;33.21;43.86
41044;BME280;51680;49.806;18.774;2022-08-19T11:35:16;96967.31;;;33.19;44.17
41044;BME280;51680;49.806;18.774;2022-08-19T11:38:21;96959.25;;;33.24;44.77
41044;BME280;51680;49.806;18.774;2022-08-19T11:41:23;96951.16;;;33.24;44.33
41044;BME280;51680;49.806;18.774;2022-08-19T11:44:26;96957.28;;;33.36;43.91
41044;BME280;51680;49.806;18.774;2022-08-19T11:47:30;96955.22;;;33.43;44.86
41044;BME280;51680;49.806;18.774;2022-08-19T11:50:33;96954.66;;;33.41;45.60
41044;BME280;51680;49.806;18.774;2022-08-19T11:53:37;96951.72;;;33.48;45.17
41044;BME280;51680;49.806;18.774;2022-08-19T11:56:40;96961.66;;;33.37;44.28
41044;BME280;51680;49.806;18.774;2022-08-19T11:59:42;96958.19;;;33.25;44.74
41044;BME280;51680;49.806;18.774;2022-08-19T12:02:48;96956.06;;;33.27;45.31
41044;BME280;51680;49.806;18.774;2022-08-19T12:05:50;96947.47;;;33.52;45.32
41044;BME280;51680;49.806;18.774;2022-08-19T12:08:54;96943.03;;;33.67;45.50
41044;BME280;51680;49.806;18.774;2022-08-19T12:11:56;96948.00;;;33.75;46.22
41044;BME280;51680;49.806;18.774;2022-08-19T12:14:57;96940.88;;;33.91;46.13
41044;BME280;51680;49.806;18.774;2022-08-19T12:17:59;96927.72;;;33.99;45.40
41044;BME280;51680;49.806;18.774;2022-08-19T12:21:01;96923.38;;;34.03;45.51
41044;BME280;51680;49.806;18.774;2022-08-19T12:24:06;96930.25;;;34.11;46.45
41044;BME280;51680;49.806;18.774;2022-08-19T12:27:08;96926.13;;;34.30;46.88
41044;BME280;51680;49.806;18.774;2022-08-19T12:30:12;96922.81;;;34.59;46.03
41044;BME280;51680;49.806;18.774;2022-08-19T12:33:14;96917.03;;;34.82;46.00
41044;BME280;51680;49.806;18.774;2022-08-19T12:36:16;96916.63;;;35.05;44.86
41044;BME280;51680;49.806;18.774;2022-08-19T12:39:20;96924.91;;;35.25;45.05
41044;BME280;51680;49.806;18.774;2022-08-19T12:42:22;96920.78;;;35.23;44.70
41044;BME280;51680;49.806;18.774;2022-08-19T12:45:23;96928.06;;;35.12;46.04
41044;BME280;51680;49.806;18.774;2022-08-19T12:48:25;96925.09;;;34.72;45.41
41044;BME280;51680;49.806;18.774;2022-08-19T12:51:27;96923.13;;;34.68;45.29
41044;BME280;51680;49.806;18.774;2022-08-19T12:54:33;96914.56;;;34.44;40.84
41044;BME280;51680;49.806;18.774;2022-08-19T12:57:35;96912.56;;;34.30;41.10
41044;BME280;51680;49.806;18.774;2022-08-19T13:00:36;96919.16;;;34.44;42.60
41044;BME280;51680;49.806;18.774;2022-08-19T13:03:39;96912.09;;;34.43;40.52
41044;BME280;51680;49.806;18.774;2022-08-19T13:06:41;96917.53;;;34.43;39.38
41044;BME280;51680;49.806;18.774;2022-08-19T13:09:44;96909.72;;;34.51;39.20
41044;BME280;51680;49.806;18.774;2022-08-19T13:12:48;96910.19;;;34.75;40.01
41044;BME280;51680;49.806;18.774;2022-08-19T13:15:50;96911.78;;;35.17;40.15
41044;BME280;51680;49.806;18.774;2022-08-19T13:18:52;96905.09;;;35.35;39.50
41044;BME280;51680;49.806;18.774;2022-08-19T13:21:53;96898.22;;;35.17;38.63
41044;BME280;51680;49.806;18.774;2022-08-19T13:24:57;96894.38;;;35.08;37.97
41044;BME280;51680;49.806;18.774;2022-08-19T13:27:59;96903.09;;;35.15;40.06
41044;BME280;51680;49.806;18.774;2022-08-19T13:31:01;96899.69;;;35.35;40.13
41044;BME280;51680;49.806;18.774;2022-08-19T13:34:28;96889.72;;;35.70;38.77
41044;BME280;51680;49.806;18.774;2022-08-19T13:37:31;96884.94;;;35.97;37.26
41044;BME280;51680;49.806;18.774;2022-08-19T13:40:48;96883.03;;;36.08;37.33
41044;BME280;51680;49.806;18.774;2022-08-19T13:43:50;96889.28;;;36.18;38.13
41044;BME280;51680;49.806;18.774;2022-08-19T13:46:52;96899.41;;;36.28;38.49
41044;BME280;51680;49.806;18.774;2022-08-19T13:49:54;96895.31;;;36.25;39.40
41044;BME280;51680;49.806;18.774;2022-08-19T13:52:56;96892.59;;;36.30;39.28
41044;BME280;51680;49.806;18.774;2022-08-19T13:55:59;96889.03;;;36.45;39.52
41044;BME280;51680;49.806;18.774;2022-08-19T13:59:01;96877.34;;;36.54;39.44
41044;BME280;51680;49.806;18.774;2022-08-19T14:02:03;96883.06;;;36.43;39.46
41044;BME280;51680;49.806;18.774;2022-08-19T14:05:07;96877.38;;;36.39;39.87
41044;BME280;51680;49.806;18.774;2022-08-19T14:08:09;96878.44;;;36.28;40.27
41044;BME280;51680;49.806;18.774;2022-08-19T14:11:15;96872.69;;;36.15;41.15
41044;BME280;51680;49.806;18.774;2022-08-19T14:14:17;96869.44;;;36.13;40.43
41044;BME280;51680;49.806;18.774;2022-08-19T14:17:19;96863.78;;;36.19;39.79
41044;BME280;51680;49.806;18.774;2022-08-19T14:20:22;96863.78;;;36.29;40.06
41044;BME280;51680;49.806;18.774;2022-08-19T14:23:24;96864.84;;;36.33;40.73
41044;BME280;51680;49.806;18.774;2022-08-19T14:26:27;96863.50;;;36.36;41.10
41044;BME280;51680;49.806;18.774;2022-08-19T14:29:28;96860.47;;;36.37;40.90
41044;BME280;51680;49.806;18.774;2022-08-19T14:32:30;96865.38;;;36.40;41.28
41044;BME280;51680;49.806;18.774;2022-08-19T14:35:33;96856.13;;;36.36;40.57
41044;BME280;51680;49.806;18.774;2022-08-19T14:38:35;96863.78;;;36.29;41.06
41044;BME280;51680;49.806;18.774;2022-08-19T14:41:39;96860.19;;;35.94;41.48
41044;BME280;51680;49.806;18.774;2022-08-19T14:44:42;96842.94;;;35.33;43.06
41044;BME280;51680;49.806;18.774;2022-08-19T14:47:44;96836.00;;;35.11;43.16
41044;BME280;51680;49.806;18.774;2022-08-19T14:50:45;96840.13;;;34.72;42.76
41044;BME280;51680;49.806;18.774;2022-08-19T14:53:48;96846.84;;;34.23;43.71
41044;BME280;51680;49.806;18.774;2022-08-19T14:56:52;96855.63;;;34.30;43.03
41044;BME280;51680;49.806;18.774;2022-08-19T14:59:54;96860.44;;;34.28;44.28
41044;BME280;51680;49.806;18.774;2022-08-19T15:02:55;96857.31;;;34.09;43.96
41044;BME280;51680;49.806;18.774;2022-08-19T15:05:57;96861.53;;;33.95;44.20
41044;BME280;51680;49.806;18.774;2022-08-19T15:09:00;96859.88;;;33.89;45.79
41044;BME280;51680;49.806;18.774;2022-08-19T15:12:05;96846.56;;;33.88;45.42
41044;BME280;51680;49.806;18.774;2022-08-19T15:15:08;96852.53;;;33.90;45.55
41044;BME280;51680;49.806;18.774;2022-08-19T15:18:13;96835.94;;;33.81;46.07
41044;BME280;51680;49.806;18.774;2022-08-19T15:21:14;96837.38;;;33.67;45.80
41044;BME280;51680;49.806;18.774;2022-08-19T15:24:17;96830.44;;;33.50;45.66
41044;BME280;51680;49.806;18.774;2022-08-19T15:27:21;96829.50;;;33.39;46.73
41044;BME280;51680;49.806;18.774;2022-08-19T15:30:25;96833.13;;;33.02;46.93
41044;BME280;51680;49.806;18.774;2022-08-19T15:33:30;96821.47;;;32.80;48.24
41044;BME280;51680;49.806;18.774;2022-08-19T15:36:32;96811.63;;;32.52;48.04
41044;BME280;51680;49.806;18.774;2022-08-19T15:39:35;96811.72;;;32.41;48.73
41044;BME280;51680;49.806;18.774;2022-08-19T15:42:38;96807.00;;;32.31;49.59
41044;BME280;51680;49.806;18.774;2022-08-19T15:45:41;96807.47;;;32.28;49.92
41044;BME280;51680;49.806;18.774;2022-08-19T15:48:44;96811.94;;;32.23;50.50
41044;BME280;51680;49.806;18.774;2022-08-19T15:51:47;96831.63;;;32.18;50.33
41044;BME280;51680;49.806;18.774;2022-08-19T15:54:51;96844.47;;;32.11;51.05
41044;BME280;51680;49.806;18.774;2022-08-19T15:57:54;96861.66;;;32.05;52.10
41044;BME280;51680;49.806;18.774;2022-08-19T16:01:14;96864.19;;;31.79;51.99